createdAt,value
2018-08-12T00:01:26.882Z,0.20
2018-08-12T00:03:55.836Z,0.20
2018-08-12T00:06:24.803Z,0.40
2018-08-12T00:08:53.803Z,0.30
2018-08-12T00:11:22.752Z,0.20
2018-08-12T00:13:51.706Z,0.40
2018-08-12T00:16:20.668Z,0.30
2018-08-12T00:18:49.677Z,0.20
2018-08-12T00:21:18.685Z,0.30
2018-08-12T00:23:47.644Z,0.20
2018-08-12T00:26:16.664Z,0.20
2018-08-12T00:28:45.657Z,0.20
2018-08-12T00:31:14.704Z,0.33
2018-08-12T00:33:43.717Z,0.20
2018-08-12T00:36:12.676Z,0.30
2018-08-12T00:38:41.627Z,0.30
2018-08-12T00:41:10.535Z,0.30
2018-08-12T00:43:39.511Z,0.20
2018-08-12T00:46:08.456Z,0.20
2018-08-12T00:48:37.406Z,0.30
2018-08-12T00:51:06.720Z,0.33
2018-08-12T00:53:35.671Z,0.13
2018-08-12T00:56:04.694Z,0.20
2018-08-12T00:58:33.669Z,0.33
2018-08-12T01:01:02.677Z,0.37
2018-08-12T01:03:31.647Z,0.30
2018-08-12T01:06:00.777Z,0.40
2018-08-12T01:08:29.663Z,0.10
2018-08-12T01:10:58.711Z,0.17
2018-08-12T01:13:27.707Z,0.47
2018-08-12T01:15:56.647Z,0.30
2018-08-12T01:18:25.644Z,0.43
2018-08-12T01:20:54.580Z,0.30
2018-08-12T01:23:23.519Z,0.23
2018-08-12T01:26:03.160Z,0.20
2018-08-12T01:28:33.132Z,0.20
2018-08-12T01:31:02.125Z,0.30
2018-08-12T01:33:31.136Z,0.20
2018-08-12T01:36:00.130Z,0.30
2018-08-12T01:38:29.052Z,0.30
2018-08-12T01:40:58.056Z,0.23
2018-08-12T01:43:26.963Z,0.20
2018-08-12T01:45:55.939Z,0.33
2018-08-12T01:48:24.884Z,0.30
2018-08-12T01:50:53.791Z,0.20
2018-08-12T01:53:22.694Z,0.27
2018-08-12T01:55:51.670Z,0.20
2018-08-12T01:58:20.658Z,0.20
2018-08-12T02:00:49.597Z,0.30
2018-08-12T02:03:18.558Z,0.20
2018-08-12T02:05:47.491Z,0.30
2018-08-12T02:08:16.444Z,0.20
2018-08-12T02:10:45.392Z,0.30
2018-08-12T02:13:14.673Z,0.27
2018-08-12T02:15:43.618Z,0.23
2018-08-12T02:18:12.561Z,0.20
2018-08-12T02:20:41.515Z,0.20
2018-08-12T02:23:10.457Z,0.30
2018-08-12T02:25:39.355Z,0.40
2018-08-12T02:28:08.480Z,0.20
2018-08-12T02:30:37.494Z,0.30
2018-08-12T02:33:06.576Z,0.20
2018-08-12T02:35:35.493Z,0.30
2018-08-12T02:38:04.509Z,0.40
2018-08-12T02:40:33.439Z,0.30
2018-08-12T02:43:02.373Z,0.20
2018-08-12T02:45:31.353Z,0.20
2018-08-12T02:48:00.313Z,0.27
2018-08-12T02:50:29.301Z,0.30
2018-08-12T02:52:58.567Z,0.30
2018-08-12T02:55:27.515Z,0.27
2018-08-12T02:57:56.462Z,0.20
2018-08-12T03:00:25.412Z,0.30
2018-08-12T03:02:54.370Z,0.27
2018-08-12T03:05:23.327Z,0.20
2018-08-12T03:07:52.299Z,0.20
2018-08-12T03:10:21.274Z,0.20
2018-08-12T03:12:50.200Z,0.20
2018-08-12T03:15:19.279Z,0.33
2018-08-12T03:17:48.236Z,0.40
2018-08-12T03:20:17.203Z,0.30
2018-08-12T03:22:46.162Z,0.30
2018-08-12T03:25:15.080Z,0.30
2018-08-12T03:27:44.061Z,0.23
2018-08-12T03:30:13.155Z,0.30
2018-08-12T03:32:42.128Z,0.27
2018-08-12T03:35:11.143Z,0.10
2018-08-12T03:37:40.104Z,0.60
2018-08-12T03:40:11.137Z,0.10
2018-08-12T03:42:40.209Z,0.40
2018-08-12T03:45:09.741Z,0.20
2018-08-12T03:47:38.795Z,0.23
2018-08-12T03:50:09.209Z,0.30
2018-08-12T03:52:38.670Z,0.30
2018-08-12T03:55:08.270Z,0.27
2018-08-12T03:57:37.217Z,0.20
2018-08-12T04:00:11.830Z,0.27
2018-08-12T04:02:40.861Z,0.30
2018-08-12T04:05:09.927Z,0.20
2018-08-12T04:07:38.998Z,0.20
2018-08-12T04:10:08.662Z,0.30
2018-08-12T04:12:37.619Z,0.20
2018-08-12T04:15:07.157Z,0.27
2018-08-12T04:17:36.132Z,0.40
2018-08-12T04:20:06.344Z,0.13
2018-08-12T04:22:35.426Z,0.50
2018-08-12T04:25:04.567Z,0.40
2018-08-12T04:27:33.516Z,0.30
2018-08-12T04:30:02.475Z,0.20
2018-08-12T04:32:31.411Z,0.30
2018-08-12T04:35:00.418Z,0.20
2018-08-12T04:37:29.387Z,0.17
2018-08-12T04:39:58.337Z,0.27
2018-08-12T04:42:27.275Z,0.30
2018-08-12T04:44:56.215Z,0.20
2018-08-12T04:47:25.218Z,0.30
2018-08-12T04:49:54.304Z,0.40
2018-08-12T04:52:23.266Z,0.30
2018-08-12T04:54:52.264Z,0.20
2018-08-12T04:57:21.233Z,0.30
2018-08-12T04:59:50.176Z,0.30
2018-08-12T05:02:19.133Z,0.20
2018-08-12T05:04:48.179Z,0.20
2018-08-12T05:07:17.157Z,0.30
2018-08-12T05:09:46.113Z,0.30
2018-08-12T05:12:15.051Z,0.30
2018-08-12T05:14:44.020Z,0.30
2018-08-12T05:17:13.065Z,0.13
2018-08-12T05:19:42.060Z,0.20
2018-08-12T05:22:11.089Z,0.30
2018-08-12T05:24:40.024Z,0.20
2018-08-12T05:27:10.664Z,0.27
2018-08-12T05:29:40.574Z,0.30
2018-08-12T05:32:09.519Z,0.20
2018-08-12T05:34:38.584Z,0.20
2018-08-12T05:37:07.556Z,0.20
2018-08-12T05:39:36.497Z,0.10
2018-08-12T05:42:05.465Z,0.10
2018-08-12T05:44:34.413Z,0.20
2018-08-12T05:47:04.947Z,0.23
2018-08-12T05:49:33.899Z,0.10
2018-08-12T05:52:02.967Z,0.17
2018-08-12T05:54:31.964Z,0.20
2018-08-12T05:57:00.968Z,0.10
2018-08-12T05:59:29.938Z,0.20
2018-08-12T06:01:59.570Z,0.23
2018-08-12T06:04:28.517Z,0.10
2018-08-12T06:06:57.528Z,0.30
2018-08-12T06:09:26.541Z,0.20
2018-08-12T06:11:55.490Z,0.20
2018-08-12T06:14:24.452Z,0.10
2018-08-12T06:16:53.414Z,0.20
2018-08-12T06:19:22.336Z,0.30
2018-08-12T06:21:51.316Z,0.20
2018-08-12T06:24:23.013Z,0.30
2018-08-12T06:26:52.012Z,0.20
2018-08-12T06:29:21.139Z,0.20
2018-08-12T06:31:50.132Z,0.20
2018-08-12T06:34:19.048Z,0.30
2018-08-12T06:36:48.062Z,0.27
2018-08-12T06:39:17.051Z,0.20
2018-08-12T06:41:46.025Z,0.27
2018-08-12T06:44:14.989Z,0.30
2018-08-12T06:46:43.996Z,0.30
2018-08-12T06:49:12.958Z,0.30
2018-08-12T06:51:41.937Z,0.20
2018-08-12T06:54:10.871Z,0.20
2018-08-12T06:56:40.007Z,0.30
2018-08-12T06:59:09.912Z,0.20
2018-08-12T07:01:40.272Z,0.20
2018-08-12T07:04:09.238Z,0.20
2018-08-12T07:06:38.211Z,0.30
2018-08-12T07:09:09.005Z,0.30
2018-08-12T07:11:38.142Z,0.30
2018-08-12T07:14:07.902Z,0.30
2018-08-12T07:16:37.352Z,0.20
2018-08-12T07:19:07.461Z,0.37
2018-08-12T07:21:36.417Z,0.30
2018-08-12T07:24:05.472Z,0.30
2018-08-12T07:26:34.881Z,0.33
2018-08-12T07:29:03.913Z,0.40
2018-08-12T07:31:32.864Z,0.20
2018-08-12T07:34:01.936Z,0.43
2018-08-12T07:36:30.948Z,0.40
2018-08-12T07:39:00.038Z,0.60
2018-08-12T07:41:29.183Z,0.40
2018-08-12T07:43:58.512Z,0.40
2018-08-12T07:46:27.568Z,0.40
2018-08-12T07:48:56.545Z,0.50
2018-08-12T07:51:25.557Z,0.40
2018-08-12T07:53:54.608Z,0.33
2018-08-12T07:56:24.112Z,0.40
2018-08-12T07:58:53.036Z,0.40
2018-08-12T08:01:22.221Z,0.30
2018-08-12T08:03:51.197Z,0.30
2018-08-12T08:06:21.127Z,0.50
2018-08-12T08:08:50.528Z,0.40
2018-08-12T08:11:19.502Z,0.40
2018-08-12T08:13:48.506Z,0.40
2018-08-12T08:16:17.449Z,0.30
2018-08-12T08:18:46.460Z,0.40
2018-08-12T08:21:15.421Z,0.50
2018-08-12T08:23:44.463Z,0.37
2018-08-12T08:26:13.565Z,0.47
2018-08-12T08:28:42.572Z,0.40
2018-08-12T08:31:11.652Z,0.40
2018-08-12T08:33:40.929Z,0.40
2018-08-12T08:36:09.861Z,0.45
2018-08-12T08:38:38.840Z,0.55
2018-08-12T08:41:07.837Z,0.42
2018-08-12T08:43:36.862Z,0.40
2018-08-12T08:46:05.976Z,0.40
2018-08-12T08:48:35.064Z,0.50
2018-08-12T08:51:04.355Z,0.50
2018-08-12T08:53:33.501Z,0.50
2018-08-12T08:56:02.983Z,0.50
2018-08-12T08:58:33.912Z,0.40
2018-08-12T09:01:03.339Z,0.50
2018-08-12T09:03:33.087Z,0.60
2018-08-12T09:06:02.159Z,0.50
2018-08-12T09:08:31.871Z,0.42
2018-08-12T09:11:00.751Z,0.57
2018-08-12T09:13:30.612Z,0.50
2018-08-12T09:16:01.623Z,0.50
2018-08-12T09:18:30.709Z,0.50
2018-08-12T09:20:59.618Z,0.37
2018-08-12T09:23:28.569Z,0.55
2018-08-12T09:25:57.530Z,0.60
2018-08-12T09:28:26.471Z,0.60
2018-08-12T09:30:55.412Z,0.50
2018-08-12T09:33:24.387Z,0.60
2018-08-12T09:35:53.357Z,0.60
2018-08-12T09:38:23.012Z,0.53
2018-08-12T09:40:52.622Z,0.60
2018-08-12T09:43:22.124Z,0.60
2018-08-12T09:45:51.625Z,0.60
2018-08-12T09:48:21.205Z,0.50
2018-08-12T09:50:50.948Z,0.57
2018-08-12T09:53:19.894Z,0.62
2018-08-12T09:55:48.907Z,0.55
2018-08-12T09:58:17.931Z,0.53
2018-08-12T10:00:46.959Z,0.60
2018-08-12T10:03:16.057Z,0.60
2018-08-12T10:05:45.067Z,0.50
2018-08-12T10:08:14.023Z,0.50
2018-08-12T10:10:43.059Z,0.60
2018-08-12T10:13:12.075Z,0.68
2018-08-12T10:15:41.178Z,0.50
2018-08-12T10:18:10.013Z,0.55
2018-08-12T10:20:38.976Z,0.42
2018-08-12T10:23:08.584Z,0.47
2018-08-12T10:25:38.095Z,0.47
2018-08-12T10:28:07.806Z,0.57
2018-08-12T10:30:37.414Z,0.50
2018-08-12T10:33:07.031Z,0.50
2018-08-12T10:35:36.060Z,0.60
2018-08-12T10:38:05.108Z,0.47
2018-08-12T10:40:34.032Z,0.45
2018-08-12T10:43:02.996Z,0.60
2018-08-12T10:45:32.140Z,0.62
2018-08-12T10:48:01.081Z,0.57
2018-08-12T10:50:30.107Z,0.50
2018-08-12T10:52:59.039Z,0.53
2018-08-12T10:55:27.991Z,0.50
2018-08-12T10:57:56.898Z,0.50
2018-08-12T11:00:28.638Z,0.50
2018-08-12T11:02:58.226Z,0.50
2018-08-12T11:05:28.038Z,0.65
2018-08-12T11:07:58.778Z,0.50
2018-08-12T11:10:28.996Z,0.50
2018-08-12T11:12:58.605Z,0.60
2018-08-12T11:15:28.227Z,0.40
2018-08-12T11:17:58.027Z,0.50
2018-08-12T11:20:27.898Z,0.57
2018-08-12T11:22:57.344Z,0.60
2018-08-12T11:25:27.065Z,0.65
2018-08-12T11:27:56.442Z,0.70
2018-08-12T11:30:25.400Z,0.60
2018-08-12T11:32:54.343Z,0.72
2018-08-12T11:35:23.329Z,0.53
2018-08-12T11:37:52.281Z,0.70
2018-08-12T11:40:21.213Z,0.60
2018-08-12T11:42:50.274Z,0.50
2018-08-12T11:45:19.843Z,0.50
2018-08-12T11:47:49.972Z,0.53
2018-08-12T11:50:19.101Z,0.53
2018-08-12T11:52:48.211Z,0.60
2018-08-12T11:55:20.162Z,0.57
2018-08-12T11:57:50.737Z,0.47
2018-08-12T12:00:21.677Z,0.47
2018-08-12T12:02:52.616Z,0.50
2018-08-12T12:05:22.326Z,0.60
2018-08-12T12:07:51.629Z,0.50
2018-08-12T12:10:22.468Z,0.57
2018-08-12T12:12:52.104Z,0.50
2018-08-12T12:15:21.367Z,0.68
2018-08-12T12:17:50.324Z,0.60
2018-08-12T12:20:20.014Z,0.70
2018-08-12T12:22:49.472Z,0.62
2018-08-12T12:25:19.745Z,0.70
2018-08-12T12:27:48.689Z,0.70
2018-08-12T12:30:19.298Z,0.50
2018-08-12T12:32:49.183Z,0.68
2018-08-12T12:35:18.139Z,0.70
2018-08-12T12:37:47.131Z,0.60
2018-08-12T12:40:17.244Z,0.60
2018-08-12T12:42:46.868Z,0.60
2018-08-12T12:45:17.189Z,0.60
2018-08-12T12:47:47.108Z,0.60
2018-08-12T12:50:19.092Z,0.60
2018-08-12T12:52:49.032Z,0.72
2018-08-12T12:55:18.623Z,0.60
2018-08-12T12:57:47.645Z,0.50
2018-08-12T13:00:18.037Z,0.65
2018-08-12T13:02:47.417Z,0.70
2018-08-12T13:05:17.607Z,0.60
2018-08-12T13:07:47.608Z,0.60
2018-08-12T13:10:17.409Z,0.70
2018-08-12T13:12:46.373Z,0.70
2018-08-12T13:15:16.172Z,0.70
2018-08-12T13:17:45.168Z,0.80
2018-08-12T13:20:16.489Z,0.80
2018-08-12T13:22:46.460Z,0.68
2018-08-12T13:25:17.580Z,0.72
2018-08-12T13:27:46.579Z,0.60
2018-08-12T13:30:16.621Z,0.50
2018-08-12T13:32:46.436Z,0.60
2018-08-12T13:35:15.369Z,0.72
2018-08-12T13:37:44.286Z,0.60
2018-08-12T13:40:14.575Z,0.53
2018-08-12T13:42:44.189Z,0.60
2018-08-12T13:45:13.676Z,0.70
2018-08-12T13:47:43.819Z,0.70
2018-08-12T13:50:17.309Z,0.70
2018-08-12T13:52:46.577Z,0.60
2018-08-12T13:55:15.548Z,0.75
2018-08-12T13:57:45.460Z,0.62
2018-08-12T14:00:16.604Z,0.70
2018-08-12T14:02:46.215Z,0.72
2018-08-12T14:05:17.664Z,0.60
2018-08-12T14:07:47.996Z,0.75
2018-08-12T14:10:17.601Z,0.70
2018-08-12T14:12:47.615Z,0.70
2018-08-12T14:15:18.556Z,0.70
2018-08-12T14:17:48.490Z,0.62
2018-08-12T14:20:18.647Z,0.60
2018-08-12T14:22:47.691Z,0.70
2018-08-12T14:25:16.907Z,0.75
2018-08-12T14:27:46.069Z,0.60
2018-08-12T14:30:18.911Z,0.60
2018-08-12T14:32:48.511Z,0.60
2018-08-12T14:35:18.338Z,0.60
2018-08-12T14:37:47.260Z,0.55
2018-08-12T14:40:16.415Z,0.70
2018-08-12T14:42:45.449Z,0.80
2018-08-12T14:45:15.189Z,0.62
2018-08-12T14:47:44.534Z,0.80
2018-08-12T14:50:16.765Z,0.80
2018-08-12T14:52:45.827Z,0.70
2018-08-12T14:55:15.617Z,0.80
2018-08-12T14:57:44.659Z,0.80
2018-08-12T15:00:16.147Z,0.70
2018-08-12T15:02:46.051Z,0.70
2018-08-12T15:05:15.095Z,0.80
2018-08-12T15:07:44.139Z,0.70
2018-08-12T15:10:13.487Z,0.75
2018-08-12T15:12:43.337Z,0.70
2018-08-12T15:15:13.494Z,0.80
2018-08-12T15:17:43.596Z,0.72
2018-08-12T15:20:13.548Z,0.80
2018-08-12T15:22:42.919Z,0.70
2018-08-12T15:25:14.351Z,0.80
2018-08-12T15:27:43.296Z,0.70
2018-08-12T15:30:12.289Z,0.72
2018-08-12T15:32:41.259Z,0.70
2018-08-12T15:35:10.588Z,0.70
2018-08-12T15:37:39.567Z,0.70
2018-08-12T15:40:11.289Z,0.80
2018-08-12T15:42:40.585Z,0.70
2018-08-12T15:45:11.888Z,0.70
2018-08-12T15:47:41.395Z,0.65
2018-08-12T15:50:11.791Z,0.70
2018-08-12T15:52:43.715Z,0.70
2018-08-12T15:55:12.848Z,0.70
2018-08-12T15:57:41.776Z,0.70
2018-08-12T16:00:14.048Z,0.60
2018-08-12T16:02:44.314Z,0.60
2018-08-12T16:05:13.821Z,0.70
2018-08-12T16:07:43.275Z,0.60
2018-08-12T16:10:15.878Z,0.70
2018-08-12T16:12:45.443Z,0.70
2018-08-12T16:15:14.370Z,0.70
2018-08-12T16:17:43.482Z,0.60
2018-08-12T16:20:12.868Z,0.50
2018-08-12T16:22:41.944Z,0.60
2018-08-12T16:25:15.544Z,0.62
2018-08-12T16:27:44.789Z,0.55
2018-08-12T16:30:15.151Z,0.60
2018-08-12T16:32:44.080Z,0.40
2018-08-12T16:35:15.368Z,0.60
2018-08-12T16:37:45.796Z,0.50
2018-08-12T16:40:17.973Z,0.50
2018-08-12T16:42:47.255Z,0.50
2018-08-12T16:45:16.807Z,0.50
2018-08-12T16:47:46.230Z,0.50
2018-08-12T16:50:15.280Z,0.40
2018-08-12T16:52:44.625Z,0.60
2018-08-12T16:55:15.256Z,0.50
2018-08-12T16:57:45.177Z,0.60
2018-08-12T17:00:15.704Z,0.50
2018-08-12T17:02:45.413Z,0.55
2018-08-12T17:05:16.013Z,0.40
2018-08-12T17:07:45.247Z,0.50
2018-08-12T17:10:15.368Z,0.50
2018-08-12T17:12:45.045Z,0.40
2018-08-12T17:15:16.261Z,0.40
2018-08-12T17:17:45.769Z,0.40
2018-08-12T17:20:16.043Z,0.40
2018-08-12T17:22:45.307Z,0.50
2018-08-12T17:25:14.303Z,0.40
2018-08-12T17:27:43.258Z,0.37
2018-08-12T17:30:13.663Z,0.40
2018-08-12T17:32:42.606Z,0.43
2018-08-12T17:35:11.576Z,0.40
2018-08-12T17:37:41.140Z,0.40
2018-08-12T17:40:11.896Z,0.40
2018-08-12T17:42:40.929Z,0.30
2018-08-12T17:45:11.112Z,0.30
2018-08-12T17:47:40.445Z,0.40
2018-08-12T17:50:11.615Z,0.40
2018-08-12T17:52:41.935Z,0.30
2018-08-12T17:55:11.760Z,0.30
2018-08-12T17:57:41.359Z,0.40
2018-08-12T18:00:13.862Z,0.30
2018-08-12T18:02:43.649Z,0.30
2018-08-12T18:05:13.358Z,0.20
2018-08-12T18:07:42.888Z,0.30
2018-08-12T18:10:11.826Z,0.40
2018-08-12T18:12:40.753Z,0.30
2018-08-12T18:15:11.331Z,0.30
2018-08-12T18:17:41.040Z,0.30
2018-08-12T18:20:10.225Z,0.30
2018-08-12T18:22:39.800Z,0.40
2018-08-12T18:25:10.465Z,0.40
2018-08-12T18:27:39.566Z,0.37
2018-08-12T18:30:10.585Z,0.20
2018-08-12T18:32:39.716Z,0.30
2018-08-12T18:35:09.340Z,0.20
2018-08-12T18:37:38.422Z,0.33
2018-08-12T18:40:09.512Z,0.40
2018-08-12T18:42:38.986Z,0.30
2018-08-12T18:45:08.530Z,0.30
2018-08-12T18:47:38.140Z,0.27
2018-08-12T18:50:08.850Z,0.30
2018-08-12T18:52:38.790Z,0.40
2018-08-12T18:55:09.284Z,0.33
2018-08-12T18:57:38.357Z,0.30
2018-08-12T19:00:09.188Z,0.33
2018-08-12T19:02:38.297Z,0.40
2018-08-12T19:05:07.940Z,0.30
2018-08-12T19:07:36.879Z,0.30
2018-08-12T19:10:06.615Z,0.37
2018-08-12T19:12:35.705Z,0.30
2018-08-12T19:15:07.706Z,0.20
2018-08-12T19:17:39.388Z,0.30
2018-08-12T19:20:09.455Z,0.27
2018-08-12T19:22:38.846Z,0.23
2018-08-12T19:25:08.345Z,0.30
2018-08-12T19:27:37.652Z,0.20
2018-08-12T19:30:08.913Z,0.20
2018-08-12T19:32:38.330Z,0.20
2018-08-12T19:35:07.595Z,0.30
2018-08-12T19:37:36.497Z,0.20
2018-08-12T19:40:06.238Z,0.30
2018-08-12T19:42:35.204Z,0.30
2018-08-12T19:45:04.607Z,0.20
2018-08-12T19:47:33.581Z,0.30
2018-08-12T19:50:02.593Z,0.20
2018-08-12T19:52:31.618Z,0.20
2018-08-12T19:55:00.571Z,0.20
2018-08-12T19:57:29.617Z,0.30
2018-08-12T19:59:58.790Z,0.30
2018-08-12T20:02:27.735Z,0.27
2018-08-12T20:04:56.752Z,0.20
2018-08-12T20:07:25.697Z,0.30
2018-08-12T20:09:54.807Z,0.30
2018-08-12T20:12:23.754Z,0.27
2018-08-12T20:14:52.661Z,0.20
2018-08-12T20:17:21.612Z,0.20
2018-08-12T20:19:50.536Z,0.30
2018-08-12T20:22:19.577Z,0.10
2018-08-12T20:24:48.608Z,0.30
2018-08-12T20:27:17.534Z,0.33
2018-08-12T20:29:46.593Z,0.40
2018-08-12T20:32:15.680Z,0.17
2018-08-12T20:34:44.678Z,0.20
2018-08-12T20:37:13.616Z,0.30
2018-08-12T20:39:42.561Z,0.20
2018-08-12T20:42:11.556Z,0.20
2018-08-12T20:44:40.497Z,0.30
2018-08-12T20:47:09.418Z,0.20
2018-08-12T20:49:38.380Z,0.20
2018-08-12T20:52:07.326Z,0.27
2018-08-12T20:54:37.524Z,0.13
2018-08-12T20:57:06.600Z,0.30
2018-08-12T20:59:35.531Z,0.23
2018-08-12T21:02:04.564Z,0.20
2018-08-12T21:04:33.627Z,0.40
2018-08-12T21:07:03.032Z,0.30
2018-08-12T21:09:32.054Z,0.20
2018-08-12T21:12:01.138Z,0.30
2018-08-12T21:14:30.201Z,0.30
2018-08-12T21:16:59.280Z,0.20
2018-08-12T21:19:28.641Z,0.37
2018-08-12T21:21:57.919Z,0.20
2018-08-12T21:24:27.347Z,0.30
2018-08-12T21:26:56.277Z,0.23
2018-08-12T21:29:25.430Z,0.40
2018-08-12T21:31:54.352Z,0.40
2018-08-12T21:34:23.360Z,0.30
2018-08-12T21:36:52.284Z,0.20
2018-08-12T21:39:21.248Z,0.23
2018-08-12T21:41:50.155Z,0.23
2018-08-12T21:44:19.092Z,0.93
2018-08-12T21:46:48.133Z,0.30
2018-08-12T21:49:17.111Z,0.30
2018-08-12T21:51:46.004Z,0.30
2018-08-12T21:54:14.906Z,0.30
2018-08-12T21:56:43.837Z,0.20
2018-08-12T21:59:12.744Z,0.43
2018-08-12T22:01:41.731Z,0.30
2018-08-12T22:04:10.647Z,0.30
2018-08-12T22:06:39.559Z,0.20
2018-08-12T22:09:09.680Z,0.20
2018-08-12T22:11:38.664Z,0.17
2018-08-12T22:14:07.642Z,0.40
2018-08-12T22:16:38.153Z,0.20
2018-08-12T22:19:09.164Z,0.30
2018-08-12T22:21:38.386Z,0.30
2018-08-12T22:24:07.282Z,0.30
2018-08-12T22:26:36.378Z,0.27
2018-08-12T22:29:05.425Z,0.30
2018-08-12T22:31:34.380Z,0.30
2018-08-12T22:34:04.302Z,0.20
2018-08-12T22:36:33.724Z,0.10
2018-08-12T22:39:05.637Z,0.20
2018-08-12T22:41:34.628Z,0.10
2018-08-12T22:44:03.633Z,0.30
2018-08-12T22:46:32.548Z,0.30
2018-08-12T22:49:01.667Z,0.20
2018-08-12T22:51:30.761Z,0.30
2018-08-12T22:53:59.731Z,0.13
2018-08-12T22:56:28.834Z,0.20
2018-08-12T22:58:57.816Z,0.30
2018-08-12T23:01:26.923Z,0.20
2018-08-12T23:03:55.846Z,0.20
2018-08-12T23:06:24.786Z,0.10
2018-08-12T23:08:53.718Z,0.20
2018-08-12T23:11:22.644Z,0.30
2018-08-12T23:13:51.580Z,0.20
2018-08-12T23:16:31.792Z,0.10
2018-08-12T23:19:00.712Z,0.20
2018-08-12T23:21:29.612Z,0.20
2018-08-12T23:23:58.556Z,0.20
2018-08-12T23:26:27.624Z,0.30
2018-08-12T23:28:56.539Z,0.20
2018-08-12T23:31:25.449Z,0.20
2018-08-12T23:33:54.483Z,0.20
2018-08-12T23:36:23.399Z,0.30
2018-08-12T23:38:52.339Z,0.20
2018-08-12T23:41:21.272Z,0.30
2018-08-12T23:43:50.224Z,0.23
2018-08-12T23:46:19.168Z,0.30
2018-08-12T23:48:48.091Z,0.17
2018-08-12T23:51:17.006Z,0.27
2018-08-12T23:53:46.041Z,0.20
2018-08-12T23:56:14.972Z,0.20
2018-08-12T23:58:43.912Z,0.30
